PWSweather.com
Personal Weather Stations
Station Observations
KMAMEDFI2
Medfield, MA 02052

Medfield, MA 02052

Lat: 42.1900822, Lon: -71.3296889

Elevation: 138

Station Type: Rainwise WS MK-III

http://www.medfieldweather.com

High Low Average
Temperature 53.5°F11.9°C 18.9°F-7.3°C 40.3°F4.6°C
Dew Point 44.0°F6.7°C 14.0°F-10.0°C 32.0°F0.0°C
Winds 11.5 mph 18.5 kmh Calm Calm 3.0 mph S4.8 kmh S
Wind Gusts 19.6 mph31.5 kmh -- 5.0 mph8.0 kmh
Humidity 95% 42% 75%
Pressure 30.56 in1034.9 mb 30.20 in1022.7 mb -
Precipitation 0.00 in0.0 mm - -
Hour Temp Dew Point Humidity Winds Wind Gusts Pressure Precip Precip Rate Daily Precip Total
12:00 AM 19.7°F-6.8°C 14.0°F-10.0°C 78% Calm Calm -- 30.57 in1035.2 mb - 0.00 in0.0 mm 0.00 in0.0 mm
12:10 AM 19.7°F-6.8°C 14.0°F-10.0°C 78% Calm Calm -- 30.57 in1035.2 mb - 0.00 in0.0 mm 0.00 in0.0 mm
12:20 AM 19.5°F-6.9°C 14.1°F-9.9°C 79% Calm Calm -- 30.56 in1034.9 mb - 0.00 in0.0 mm 0.00 in0.0 mm
12:30 AM 19.2°F-7.1°C 14.0°F-10.0°C 80% Calm Calm -- 30.56 in1034.9 mb - 0.00 in0.0 mm 0.00 in0.0 mm
12:40 AM 19.3°F-7.1°C 14.1°F-9.9°C 80% Calm Calm -- 30.56 in1034.9 mb - 0.00 in0.0 mm 0.00 in0.0 mm
12:50 AM 19.3°F-7.1°C 14.1°F-9.9°C 80% Calm Calm -- 30.56 in1034.9 mb - 0.00 in0.0 mm 0.00 in0.0 mm
01:00 AM 19.3°F-7.1°C 14.4°F-9.8°C 81% Calm Calm -- 30.56 in1034.9 mb - 0.00 in0.0 mm 0.00 in0.0 mm
01:10 AM 19.2°F-7.1°C 14.0°F-10.0°C 80% Calm Calm -- 30.56 in1034.9 mb - 0.00 in0.0 mm 0.00 in0.0 mm
01:20 AM 19.2°F-7.1°C 14.0°F-10.0°C 80% Calm Calm -- 30.55 in1034.5 mb - 0.00 in0.0 mm 0.00 in0.0 mm
01:30 AM 19.1°F-7.2°C 14.5°F-9.7°C 82% Calm Calm -- 30.54 in1034.2 mb - 0.00 in0.0 mm 0.00 in0.0 mm
01:40 AM 19.3°F-7.1°C 14.7°F-9.6°C 82% Calm Calm -- 30.54 in1034.2 mb - 0.00 in0.0 mm 0.00 in0.0 mm
01:50 AM 19.2°F-7.1°C 14.9°F-9.5°C 83% Calm Calm -- 30.54 in1034.2 mb - 0.00 in0.0 mm 0.00 in0.0 mm
02:00 AM 18.9°F-7.3°C 14.9°F-9.5°C 84% Calm Calm -- 30.53 in1033.9 mb - 0.00 in0.0 mm 0.00 in0.0 mm
02:10 AM 19.3°F-7.1°C 15.0°F-9.4°C 83% Calm Calm -- 30.53 in1033.9 mb - 0.00 in0.0 mm 0.00 in0.0 mm
02:20 AM 19.7°F-6.8°C 15.4°F-9.2°C 83% Calm Calm -- 30.53 in1033.9 mb - 0.00 in0.0 mm 0.00 in0.0 mm
02:30 AM 19.7°F-6.8°C 15.4°F-9.2°C 83% Calm Calm -- 30.52 in1033.5 mb - 0.00 in0.0 mm 0.00 in0.0 mm
02:40 AM 19.9°F-6.7°C 15.6°F-9.1°C 83% Calm Calm -- 30.52 in1033.5 mb - 0.00 in0.0 mm 0.00 in0.0 mm
02:50 AM 20.1°F-6.6°C 15.8°F-9.0°C 83% Calm Calm -- 30.53 in1033.9 mb - 0.00 in0.0 mm 0.00 in0.0 mm
03:00 AM 20.1°F-6.6°C 16.0°F-8.9°C 84% Calm Calm -- 30.52 in1033.5 mb - 0.00 in0.0 mm 0.00 in0.0 mm
03:10 AM 20.4°F-6.4°C 17.1°F-8.3°C 87% Calm Calm -- 30.52 in1033.5 mb - 0.00 in0.0 mm 0.00 in0.0 mm
03:20 AM 20.6°F-6.3°C 17.1°F-8.3°C 86% Calm Calm -- 30.51 in1033.2 mb - 0.00 in0.0 mm 0.00 in0.0 mm
03:30 AM 20.8°F-6.2°C 18.0°F-7.8°C 89% Calm Calm -- 30.51 in1033.2 mb - 0.00 in0.0 mm 0.00 in0.0 mm
03:40 AM 21.2°F-6.0°C 18.5°F-7.5°C 89% 1.2 mph SE1.9 kmh SE 2.3 mph3.7 kmh 30.50 in1032.8 mb - 0.00 in0.0 mm 0.00 in0.0 mm
03:50 AM 21.6°F-5.8°C 19.1°F-7.2°C 90% Calm Calm -- 30.49 in1032.5 mb - 0.00 in0.0 mm 0.00 in0.0 mm
04:00 AM 22.1°F-5.5°C 19.6°F-6.9°C 90% Calm Calm -- 30.49 in1032.5 mb - 0.00 in0.0 mm 0.00 in0.0 mm
04:10 AM 23.1°F-4.9°C 20.6°F-6.3°C 90% 1.2 mph SSE1.9 kmh SSE 2.3 mph3.7 kmh 30.49 in1032.5 mb - 0.00 in0.0 mm 0.00 in0.0 mm
04:20 AM 24.0°F-4.4°C 20.9°F-6.2°C 88% 1.2 mph S1.9 kmh S 2.3 mph3.7 kmh 30.48 in1032.2 mb - 0.00 in0.0 mm 0.00 in0.0 mm
04:30 AM 24.3°F-4.3°C 21.5°F-5.8°C 89% 1.2 mph S1.9 kmh S 1.2 mph1.9 kmh 30.48 in1032.2 mb - 0.00 in0.0 mm 0.00 in0.0 mm
04:40 AM 25.2°F-3.8°C 22.6°F-5.2°C 90% 2.3 mph S3.7 kmh S 2.3 mph3.7 kmh 30.47 in1031.8 mb - 0.00 in0.0 mm 0.00 in0.0 mm
04:50 AM 25.8°F-3.4°C 23.3°F-4.8°C 90% 2.3 mph S3.7 kmh S 2.3 mph3.7 kmh 30.47 in1031.8 mb - 0.00 in0.0 mm 0.00 in0.0 mm
05:00 AM 26.3°F-3.2°C 23.7°F-4.6°C 90% 2.3 mph SSW3.7 kmh SSW 5.8 mph9.3 kmh 30.47 in1031.8 mb - 0.00 in0.0 mm 0.00 in0.0 mm
05:10 AM 26.9°F-2.8°C 24.4°F-4.2°C 90% 2.3 mph SSE3.7 kmh SSE 5.8 mph9.3 kmh 30.46 in1031.5 mb - 0.00 in0.0 mm 0.00 in0.0 mm
05:20 AM 27.0°F-2.8°C 24.4°F-4.2°C 90% 1.2 mph WSW1.9 kmh WSW 2.3 mph3.7 kmh 30.46 in1031.5 mb - 0.00 in0.0 mm 0.00 in0.0 mm
05:30 AM 26.9°F-2.8°C 24.4°F-4.2°C 90% Calm Calm -- 30.47 in1031.8 mb - 0.00 in0.0 mm 0.00 in0.0 mm
05:40 AM 25.7°F-3.5°C 23.5°F-4.7°C 91% Calm Calm -- 30.48 in1032.2 mb - 0.00 in0.0 mm 0.00 in0.0 mm
05:50 AM 25.5°F-3.6°C 24.0°F-4.4°C 94% Calm Calm 2.3 mph3.7 kmh 30.47 in1031.8 mb - 0.00 in0.0 mm 0.00 in0.0 mm
06:00 AM 25.9°F-3.4°C 24.4°F-4.2°C 94% Calm Calm -- 30.46 in1031.5 mb - 0.00 in0.0 mm 0.00 in0.0 mm
06:10 AM 25.6°F-3.6°C 24.2°F-4.3°C 94% 1.2 mph SSE1.9 kmh SSE 2.3 mph3.7 kmh 30.45 in1031.2 mb - 0.00 in0.0 mm 0.00 in0.0 mm
06:20 AM 25.9°F-3.4°C 24.4°F-4.2°C 94% 2.3 mph S3.7 kmh S 2.3 mph3.7 kmh 30.45 in1031.2 mb - 0.00 in0.0 mm 0.00 in0.0 mm
06:30 AM 26.3°F-3.2°C 24.8°F-4.0°C 94% 1.2 mph SW1.9 kmh SW 3.5 mph5.6 kmh 30.45 in1031.2 mb - 0.00 in0.0 mm 0.00 in0.0 mm
06:40 AM 26.7°F-2.9°C 25.2°F-3.8°C 94% 2.3 mph SE3.7 kmh SE 2.3 mph3.7 kmh 30.44 in1030.8 mb - 0.00 in0.0 mm 0.00 in0.0 mm
06:50 AM 27.1°F-2.7°C 25.6°F-3.6°C 94% 2.3 mph SE3.7 kmh SE 2.3 mph3.7 kmh 30.44 in1030.8 mb - 0.00 in0.0 mm 0.00 in0.0 mm
07:00 AM 27.9°F-2.3°C 26.4°F-3.1°C 94% Calm Calm 2.3 mph3.7 kmh 30.44 in1030.8 mb - 0.00 in0.0 mm 0.00 in0.0 mm
07:10 AM 28.3°F-2.1°C 26.8°F-2.9°C 94% 2.3 mph SE3.7 kmh SE 2.3 mph3.7 kmh 30.44 in1030.8 mb - 0.00 in0.0 mm 0.00 in0.0 mm
07:20 AM 28.9°F-1.7°C 27.4°F-2.6°C 94% 1.2 mph S1.9 kmh S 2.3 mph3.7 kmh 30.44 in1030.8 mb - 0.00 in0.0 mm 0.00 in0.0 mm
07:30 AM 29.2°F-1.6°C 27.7°F-2.4°C 94% 2.3 mph SSE3.7 kmh SSE 2.3 mph3.7 kmh 30.44 in1030.8 mb - 0.00 in0.0 mm 0.00 in0.0 mm
07:40 AM 29.3°F-1.5°C 27.8°F-2.3°C 94% 1.2 mph SW1.9 kmh SW 2.3 mph3.7 kmh 30.43 in1030.5 mb - 0.00 in0.0 mm 0.00 in0.0 mm
07:50 AM 29.5°F-1.4°C 27.9°F-2.3°C 94% 1.2 mph SE1.9 kmh SE 2.3 mph3.7 kmh 30.44 in1030.8 mb - 0.00 in0.0 mm 0.00 in0.0 mm
08:00 AM 29.5°F-1.4°C 27.9°F-2.3°C 94% 2.3 mph SW3.7 kmh SW 2.3 mph3.7 kmh 30.44 in1030.8 mb - 0.00 in0.0 mm 0.00 in0.0 mm
08:10 AM 29.9°F-1.2°C 28.3°F-2.1°C 94% 2.3 mph SSE3.7 kmh SSE 2.3 mph3.7 kmh 30.44 in1030.8 mb - 0.00 in0.0 mm 0.00 in0.0 mm
08:20 AM 29.8°F-1.2°C 28.3°F-2.1°C 94% 2.3 mph SE3.7 kmh SE 2.3 mph3.7 kmh 30.43 in1030.5 mb - 0.00 in0.0 mm 0.00 in0.0 mm
08:30 AM 30.4°F-0.9°C 28.9°F-1.7°C 94% 3.5 mph SSE5.6 kmh SSE 5.8 mph9.3 kmh 30.43 in1030.5 mb - 0.00 in0.0 mm 0.00 in0.0 mm
08:40 AM 31.1°F-0.5°C 29.8°F-1.2°C 95% 2.3 mph SSW3.7 kmh SSW 2.3 mph3.7 kmh 30.43 in1030.5 mb - 0.00 in0.0 mm 0.00 in0.0 mm
08:50 AM 31.7°F-0.2°C 30.4°F-0.9°C 95% 2.3 mph SSE3.7 kmh SSE 3.5 mph5.6 kmh 30.43 in1030.5 mb - 0.00 in0.0 mm 0.00 in0.0 mm
09:00 AM 32.1°F0.1°C 30.8°F-0.7°C 95% 3.5 mph S5.6 kmh S 2.3 mph3.7 kmh 30.43 in1030.5 mb - 0.00 in0.0 mm 0.00 in0.0 mm
09:10 AM 32.5°F0.3°C 31.3°F-0.4°C 95% 1.2 mph S1.9 kmh S 2.3 mph3.7 kmh 30.42 in1030.1 mb - 0.00 in0.0 mm 0.00 in0.0 mm
09:20 AM 33.3°F0.7°C 32.1°F0.1°C 95% 3.5 mph SE5.6 kmh SE 5.8 mph9.3 kmh 30.41 in1029.8 mb - 0.00 in0.0 mm 0.00 in0.0 mm
09:30 AM 34.3°F1.3°C 33.0°F0.6°C 95% 3.5 mph SE5.6 kmh SE 5.8 mph9.3 kmh 30.40 in1029.5 mb - 0.00 in0.0 mm 0.00 in0.0 mm
09:40 AM 35.0°F1.7°C 33.7°F0.9°C 95% 3.5 mph S5.6 kmh S 5.8 mph9.3 kmh 30.41 in1029.8 mb - 0.00 in0.0 mm 0.00 in0.0 mm
09:50 AM 35.5°F1.9°C 34.2°F1.2°C 95% 2.3 mph SSE3.7 kmh SSE 5.8 mph9.3 kmh 30.40 in1029.5 mb - 0.00 in0.0 mm 0.00 in0.0 mm
10:00 AM 36.6°F2.6°C 35.3°F1.8°C 95% 2.3 mph ESE3.7 kmh ESE 2.3 mph3.7 kmh 30.40 in1029.5 mb - 0.00 in0.0 mm 0.00 in0.0 mm
10:10 AM 37.8°F3.2°C 36.0°F2.2°C 93% 2.3 mph S3.7 kmh S 2.3 mph3.7 kmh 30.40 in1029.5 mb - 0.00 in0.0 mm 0.00 in0.0 mm
10:20 AM 39.1°F3.9°C 36.7°F2.6°C 91% 3.5 mph S5.6 kmh S 11.5 mph18.5 kmh 30.41 in1029.8 mb - 0.00 in0.0 mm 0.00 in0.0 mm
10:30 AM 40.4°F4.7°C 36.8°F2.7°C 87% 10.4 mph S16.7 kmh S 13.8 mph22.2 kmh 30.40 in1029.5 mb - 0.00 in0.0 mm 0.00 in0.0 mm
10:40 AM 42.0°F5.6°C 37.2°F2.9°C 83% 4.6 mph S7.4 kmh S 8.1 mph13.0 kmh 30.40 in1029.5 mb - 0.00 in0.0 mm 0.00 in0.0 mm
10:50 AM 42.9°F6.1°C 36.8°F2.7°C 79% 3.5 mph W5.6 kmh W 9.2 mph14.8 kmh 30.40 in1029.5 mb - 0.00 in0.0 mm 0.00 in0.0 mm
11:00 AM 43.9°F6.6°C 36.8°F2.7°C 76% 6.9 mph SW11.1 kmh SW 11.5 mph18.5 kmh 30.40 in1029.5 mb - 0.00 in0.0 mm 0.00 in0.0 mm
11:10 AM 44.9°F7.2°C 36.1°F2.3°C 71% 6.9 mph SSE11.1 kmh SSE 6.9 mph11.1 kmh 30.40 in1029.5 mb - 0.00 in0.0 mm 0.00 in0.0 mm
11:20 AM 46.1°F7.8°C 36.1°F2.3°C 68% 4.6 mph SSE7.4 kmh SSE 9.2 mph14.8 kmh 30.40 in1029.5 mb - 0.00 in0.0 mm 0.00 in0.0 mm
11:30 AM 47.3°F8.5°C 36.1°F2.3°C 65% 6.9 mph S11.1 kmh S 9.2 mph14.8 kmh 30.39 in1029.1 mb - 0.00 in0.0 mm 0.00 in0.0 mm
11:40 AM 48.4°F9.1°C 35.1°F1.7°C 60% 3.5 mph S5.6 kmh S 5.8 mph9.3 kmh 30.39 in1029.1 mb - 0.00 in0.0 mm 0.00 in0.0 mm
11:50 AM 48.9°F9.4°C 33.9°F1.1°C 56% 2.3 mph SSW3.7 kmh SSW 3.5 mph5.6 kmh 30.39 in1029.1 mb - 0.00 in0.0 mm 0.00 in0.0 mm
12:00 PM 49.8°F9.9°C 33.4°F0.8°C 53% 4.6 mph S7.4 kmh S 8.1 mph13.0 kmh 30.39 in1029.1 mb - 0.00 in0.0 mm 0.00 in0.0 mm
12:10 PM 50.3°F10.2°C 32.4°F0.2°C 50% 8.1 mph SE13.0 kmh SE 16.1 mph25.9 kmh 30.39 in1029.1 mb - 0.00 in0.0 mm 0.00 in0.0 mm
12:20 PM 50.4°F10.2°C 32.0°F0.0°C 49% 10.4 mph SW16.7 kmh SW 18.4 mph29.6 kmh 30.38 in1028.8 mb - 0.00 in0.0 mm 0.00 in0.0 mm
12:30 PM 50.5°F10.3°C 32.1°F0.1°C 49% 5.8 mph S9.3 kmh S 6.9 mph11.1 kmh 30.38 in1028.8 mb - 0.00 in0.0 mm 0.00 in0.0 mm
12:40 PM 51.1°F10.6°C 32.1°F0.1°C 48% 5.8 mph SSW9.3 kmh SSW 5.8 mph9.3 kmh 30.38 in1028.8 mb - 0.00 in0.0 mm 0.00 in0.0 mm
12:50 PM 51.3°F10.7°C 32.3°F0.2°C 48% 5.8 mph W9.3 kmh W 6.9 mph11.1 kmh 30.37 in1028.4 mb - 0.00 in0.0 mm 0.00 in0.0 mm
01:00 PM 51.3°F10.7°C 31.7°F-0.2°C 47% 5.8 mph W9.3 kmh W 19.6 mph31.5 kmh 30.36 in1028.1 mb - 0.00 in0.0 mm 0.00 in0.0 mm
01:10 PM 51.6°F10.9°C 32.0°F0.0°C 47% 8.1 mph SW13.0 kmh SW 12.7 mph20.4 kmh 30.36 in1028.1 mb - 0.00 in0.0 mm 0.00 in0.0 mm
01:20 PM 51.9°F11.1°C 31.7°F-0.2°C 46% 5.8 mph S9.3 kmh S 9.2 mph14.8 kmh 30.34 in1027.4 mb - 0.00 in0.0 mm 0.00 in0.0 mm
01:30 PM 52.1°F11.2°C 32.0°F0.0°C 46% 3.5 mph SSW5.6 kmh SSW 9.2 mph14.8 kmh 30.33 in1027.1 mb - 0.00 in0.0 mm 0.00 in0.0 mm
01:40 PM 52.2°F11.2°C 32.0°F0.0°C 46% 4.6 mph S7.4 kmh S 8.1 mph13.0 kmh 30.33 in1027.1 mb - 0.00 in0.0 mm 0.00 in0.0 mm
01:50 PM 52.0°F11.1°C 31.9°F-0.1°C 46% 5.8 mph WSW9.3 kmh WSW 9.2 mph14.8 kmh 30.32 in1026.8 mb - 0.00 in0.0 mm 0.00 in0.0 mm
02:00 PM 51.6°F10.9°C 30.9°F-0.6°C 45% 3.5 mph WSW5.6 kmh WSW 3.5 mph5.6 kmh 30.32 in1026.8 mb - 0.00 in0.0 mm 0.00 in0.0 mm
02:10 PM 52.1°F11.2°C 31.4°F-0.3°C 45% 11.5 mph SSW18.5 kmh SSW 18.4 mph29.6 kmh 30.31 in1026.4 mb - 0.00 in0.0 mm 0.00 in0.0 mm
02:20 PM 52.4°F11.3°C 31.7°F-0.2°C 45% 4.6 mph SW7.4 kmh SW 8.1 mph13.0 kmh 30.30 in1026.1 mb - 0.00 in0.0 mm 0.00 in0.0 mm
02:30 PM 53.1°F11.7°C 31.7°F-0.2°C 44% 6.9 mph ESE11.1 kmh ESE 13.8 mph22.2 kmh 30.30 in1026.1 mb - 0.00 in0.0 mm 0.00 in0.0 mm
02:40 PM 53.3°F11.8°C 31.4°F-0.3°C 43% 3.5 mph ESE5.6 kmh ESE 9.2 mph14.8 kmh 30.30 in1026.1 mb - 0.00 in0.0 mm 0.00 in0.0 mm
02:50 PM 53.3°F11.8°C 30.8°F-0.7°C 42% 8.1 mph WSW13.0 kmh WSW 12.7 mph20.4 kmh 30.30 in1026.1 mb - 0.00 in0.0 mm 0.00 in0.0 mm
03:00 PM 53.3°F11.8°C 30.8°F-0.7°C 42% 2.3 mph SSW3.7 kmh SSW 6.9 mph11.1 kmh 30.30 in1026.1 mb - 0.00 in0.0 mm 0.00 in0.0 mm
03:10 PM 53.4°F11.9°C 30.9°F-0.6°C 42% 4.6 mph S7.4 kmh S 6.9 mph11.1 kmh 30.30 in1026.1 mb - 0.00 in0.0 mm 0.00 in0.0 mm
03:20 PM 53.5°F11.9°C 31.0°F-0.6°C 42% 4.6 mph SW7.4 kmh SW 11.5 mph18.5 kmh 30.30 in1026.1 mb - 0.00 in0.0 mm 0.00 in0.0 mm
03:30 PM 53.3°F11.8°C 30.8°F-0.7°C 42% 6.9 mph WSW11.1 kmh WSW 11.5 mph18.5 kmh 30.30 in1026.1 mb - 0.00 in0.0 mm 0.00 in0.0 mm
03:40 PM 52.7°F11.5°C 30.8°F-0.7°C 43% 3.5 mph WSW5.6 kmh WSW 11.5 mph18.5 kmh 30.29 in1025.7 mb - 0.00 in0.0 mm 0.00 in0.0 mm
03:50 PM 52.3°F11.3°C 30.4°F-0.9°C 43% 4.6 mph W7.4 kmh W 11.5 mph18.5 kmh 30.30 in1026.1 mb - 0.00 in0.0 mm 0.00 in0.0 mm
04:00 PM 51.9°F11.1°C 30.6°F-0.8°C 44% 4.6 mph W7.4 kmh W 17.3 mph27.8 kmh 30.29 in1025.7 mb - 0.00 in0.0 mm 0.00 in0.0 mm
04:10 PM 51.6°F10.9°C 30.4°F-0.9°C 44% 3.5 mph SW5.6 kmh SW 5.8 mph9.3 kmh 30.29 in1025.7 mb - 0.00 in0.0 mm 0.00 in0.0 mm
04:20 PM 51.1°F10.6°C 30.5°F-0.8°C 45% 2.3 mph S3.7 kmh S 6.9 mph11.1 kmh 30.28 in1025.4 mb - 0.00 in0.0 mm 0.00 in0.0 mm
04:30 PM 50.7°F10.4°C 30.7°F-0.7°C 46% 2.3 mph WSW3.7 kmh WSW 2.3 mph3.7 kmh 30.29 in1025.7 mb - 0.00 in0.0 mm 0.00 in0.0 mm
04:40 PM 50.3°F10.2°C 30.3°F-0.9°C 46% 5.8 mph S9.3 kmh S 8.1 mph13.0 kmh 30.28 in1025.4 mb - 0.00 in0.0 mm 0.00 in0.0 mm
04:50 PM 50.1°F10.1°C 30.6°F-0.8°C 47% 4.6 mph S7.4 kmh S 9.2 mph14.8 kmh 30.28 in1025.4 mb - 0.00 in0.0 mm 0.00 in0.0 mm
05:00 PM 50.0°F10.0°C 31.6°F-0.2°C 49% 3.5 mph SSE5.6 kmh SSE 3.5 mph5.6 kmh 30.27 in1025.1 mb - 0.00 in0.0 mm 0.00 in0.0 mm
05:10 PM 49.7°F9.8°C 32.8°F0.4°C 52% 4.6 mph SE7.4 kmh SE 2.3 mph3.7 kmh 30.27 in1025.1 mb - 0.00 in0.0 mm 0.00 in0.0 mm
05:20 PM 49.4°F9.7°C 33.9°F1.1°C 55% 2.3 mph SE3.7 kmh SE 5.8 mph9.3 kmh 30.27 in1025.1 mb - 0.00 in0.0 mm 0.00 in0.0 mm
05:30 PM 49.1°F9.5°C 34.9°F1.6°C 58% 2.3 mph SE3.7 kmh SE 2.3 mph3.7 kmh 30.27 in1025.1 mb - 0.00 in0.0 mm 0.00 in0.0 mm
05:40 PM 49.0°F9.4°C 36.5°F2.5°C 62% 4.6 mph SSW7.4 kmh SSW 8.1 mph13.0 kmh 30.27 in1025.1 mb - 0.00 in0.0 mm 0.00 in0.0 mm
05:50 PM 48.8°F9.3°C 38.0°F3.3°C 66% 4.6 mph SSW7.4 kmh SSW 5.8 mph9.3 kmh 30.26 in1024.7 mb - 0.00 in0.0 mm 0.00 in0.0 mm
06:00 PM 48.6°F9.2°C 38.5°F3.6°C 68% 8.1 mph S13.0 kmh S 10.4 mph16.7 kmh 30.25 in1024.4 mb - 0.00 in0.0 mm 0.00 in0.0 mm
06:10 PM 48.3°F9.1°C 39.0°F3.9°C 70% 3.5 mph SSE5.6 kmh SSE 8.1 mph13.0 kmh 30.26 in1024.7 mb - 0.00 in0.0 mm 0.00 in0.0 mm
06:20 PM 47.9°F8.8°C 39.3°F4.1°C 72% 2.3 mph SSE3.7 kmh SSE 5.8 mph9.3 kmh 30.25 in1024.4 mb - 0.00 in0.0 mm 0.00 in0.0 mm
06:30 PM 47.8°F8.8°C 40.3°F4.6°C 75% 5.8 mph S9.3 kmh S 9.2 mph14.8 kmh 30.25 in1024.4 mb - 0.00 in0.0 mm 0.00 in0.0 mm
06:40 PM 47.5°F8.6°C 40.3°F4.6°C 76% 1.2 mph SSW1.9 kmh SSW 5.8 mph9.3 kmh 30.26 in1024.7 mb - 0.00 in0.0 mm 0.00 in0.0 mm
06:50 PM 47.5°F8.6°C 41.0°F5.0°C 78% 4.6 mph SSW7.4 kmh SSW 8.1 mph13.0 kmh 30.25 in1024.4 mb - 0.00 in0.0 mm 0.00 in0.0 mm
07:00 PM 47.3°F8.5°C 41.1°F5.1°C 79% 6.9 mph WSW11.1 kmh WSW 8.1 mph13.0 kmh 30.26 in1024.7 mb - 0.00 in0.0 mm 0.00 in0.0 mm
07:10 PM 47.5°F8.6°C 41.7°F5.4°C 80% 2.3 mph ESE3.7 kmh ESE 2.3 mph3.7 kmh 30.26 in1024.7 mb - 0.00 in0.0 mm 0.00 in0.0 mm
07:20 PM 47.4°F8.6°C 41.9°F5.5°C 81% 3.5 mph SW5.6 kmh SW 8.1 mph13.0 kmh 30.26 in1024.7 mb - 0.00 in0.0 mm 0.00 in0.0 mm
07:30 PM 47.7°F8.7°C 42.2°F5.7°C 81% 3.5 mph S5.6 kmh S 5.8 mph9.3 kmh 30.26 in1024.7 mb - 0.00 in0.0 mm 0.00 in0.0 mm
07:40 PM 47.8°F8.8°C 42.3°F5.7°C 81% 2.3 mph SSW3.7 kmh SSW 3.5 mph5.6 kmh 30.26 in1024.7 mb - 0.00 in0.0 mm 0.00 in0.0 mm
07:50 PM 47.7°F8.7°C 42.5°F5.8°C 82% 2.3 mph NW3.7 kmh NW 2.3 mph3.7 kmh 30.26 in1024.7 mb - 0.00 in0.0 mm 0.00 in0.0 mm
08:00 PM 47.9°F8.8°C 42.7°F5.9°C 82% 2.3 mph S3.7 kmh S 2.3 mph3.7 kmh 30.26 in1024.7 mb - 0.00 in0.0 mm 0.00 in0.0 mm
08:10 PM 47.8°F8.8°C 42.9°F6.1°C 83% 1.2 mph SW1.9 kmh SW 5.8 mph9.3 kmh 30.26 in1024.7 mb - 0.00 in0.0 mm 0.00 in0.0 mm
08:20 PM 47.9°F8.8°C 43.0°F6.1°C 83% 3.5 mph S5.6 kmh S 3.5 mph5.6 kmh 30.25 in1024.4 mb - 0.00 in0.0 mm 0.00 in0.0 mm
08:30 PM 48.0°F8.9°C 43.0°F6.1°C 83% 1.2 mph S1.9 kmh S 2.3 mph3.7 kmh 30.26 in1024.7 mb - 0.00 in0.0 mm 0.00 in0.0 mm
08:40 PM 48.1°F8.9°C 43.2°F6.2°C 83% 3.5 mph SE5.6 kmh SE 3.5 mph5.6 kmh 30.25 in1024.4 mb - 0.00 in0.0 mm 0.00 in0.0 mm
08:50 PM 48.5°F9.2°C 43.3°F6.3°C 82% 3.5 mph S5.6 kmh S 6.9 mph11.1 kmh 30.24 in1024.0 mb - 0.00 in0.0 mm 0.00 in0.0 mm
09:00 PM 48.7°F9.3°C 43.5°F6.4°C 82% 3.5 mph WSW5.6 kmh WSW 5.8 mph9.3 kmh 30.24 in1024.0 mb - 0.00 in0.0 mm 0.00 in0.0 mm
09:10 PM 48.8°F9.3°C 43.6°F6.4°C 82% 2.3 mph SW3.7 kmh SW 2.3 mph3.7 kmh 30.24 in1024.0 mb - 0.00 in0.0 mm 0.00 in0.0 mm
09:20 PM 48.9°F9.4°C 43.7°F6.5°C 82% 1.2 mph S1.9 kmh S 5.8 mph9.3 kmh 30.24 in1024.0 mb - 0.00 in0.0 mm 0.00 in0.0 mm
09:30 PM 49.1°F9.5°C 43.9°F6.6°C 82% 3.5 mph WSW5.6 kmh WSW 3.5 mph5.6 kmh 30.24 in1024.0 mb - 0.00 in0.0 mm 0.00 in0.0 mm
09:40 PM 49.2°F9.6°C 44.0°F6.7°C 82% 2.3 mph ESE3.7 kmh ESE 2.3 mph3.7 kmh 30.23 in1023.7 mb - 0.00 in0.0 mm 0.00 in0.0 mm
09:50 PM 49.4°F9.7°C 43.8°F6.6°C 81% 1.2 mph SSW1.9 kmh SSW 1.2 mph1.9 kmh 30.23 in1023.7 mb - 0.00 in0.0 mm 0.00 in0.0 mm
10:00 PM 49.6°F9.8°C 43.7°F6.5°C 80% 3.5 mph SW5.6 kmh SW 2.3 mph3.7 kmh 30.23 in1023.7 mb - 0.00 in0.0 mm 0.00 in0.0 mm
10:10 PM 49.7°F9.8°C 43.8°F6.6°C 80% 4.6 mph SSW7.4 kmh SSW 3.5 mph5.6 kmh 30.23 in1023.7 mb - 0.00 in0.0 mm 0.00 in0.0 mm
10:20 PM 50.0°F10.0°C 43.7°F6.5°C 79% 4.6 mph S7.4 kmh S 8.1 mph13.0 kmh 30.22 in1023.4 mb - 0.00 in0.0 mm 0.00 in0.0 mm
10:30 PM 50.3°F10.2°C 43.7°F6.5°C 78% 4.6 mph W7.4 kmh W 5.8 mph9.3 kmh 30.22 in1023.4 mb - 0.00 in0.0 mm 0.00 in0.0 mm
10:40 PM 50.6°F10.3°C 43.6°F6.4°C 77% 2.3 mph SSW3.7 kmh SSW 5.8 mph9.3 kmh 30.22 in1023.4 mb - 0.00 in0.0 mm 0.00 in0.0 mm
10:50 PM 50.6°F10.3°C 43.6°F6.4°C 77% 3.5 mph SSW5.6 kmh SSW 5.8 mph9.3 kmh 30.22 in1023.4 mb - 0.00 in0.0 mm 0.00 in0.0 mm
11:00 PM 50.8°F10.4°C 43.5°F6.4°C 76% 2.3 mph SW3.7 kmh SW 9.2 mph14.8 kmh 30.22 in1023.4 mb - 0.00 in0.0 mm 0.00 in0.0 mm
11:10 PM 50.7°F10.4°C 43.4°F6.3°C 76% 3.5 mph SSW5.6 kmh SSW 6.9 mph11.1 kmh 30.22 in1023.4 mb - 0.00 in0.0 mm 0.00 in0.0 mm
11:20 PM 50.7°F10.4°C 43.4°F6.3°C 76% 4.6 mph SSE7.4 kmh SSE 8.1 mph13.0 kmh 30.22 in1023.4 mb - 0.00 in0.0 mm 0.00 in0.0 mm
11:30 PM 50.8°F10.4°C 43.2°F6.2°C 75% 3.5 mph SE5.6 kmh SE 11.5 mph18.5 kmh 30.21 in1023.0 mb - 0.00 in0.0 mm 0.00 in0.0 mm
11:40 PM 50.7°F10.4°C 43.0°F6.1°C 75% 3.5 mph SSE5.6 kmh SSE 5.8 mph9.3 kmh 30.21 in1023.0 mb - 0.00 in0.0 mm 0.00 in0.0 mm
11:50 PM 50.6°F10.3°C 42.9°F6.1°C 75% 3.5 mph SSW5.6 kmh SSW 3.5 mph5.6 kmh 30.21 in1023.0 mb - 0.00 in0.0 mm 0.00 in0.0 mm